sensor_id;sensor_type;location;lat;lon;timestamp;P1;P2;P0
45700;PMS5003;36277;32.852;-116.998;2023-07-08T00:00:44;2.00;2.00;1.80
45700;PMS5003;36277;32.852;-116.998;2023-07-08T00:03:13;2.00;2.00;2.00
45700;PMS5003;36277;32.852;-116.998;2023-07-08T00:05:40;2.00;2.00;2.00
45700;PMS5003;36277;32.852;-116.998;2023-07-08T00:08:16;2.00;2.00;1.80
45700;PMS5003;36277;32.852;-116.998;2023-07-08T00:10:44;2.80;2.80;2.40
45700;PMS5003;36277;32.852;-116.998;2023-07-08T00:13:10;3.00;3.00;2.40
45700;PMS5003;36277;32.852;-116.998;2023-07-08T00:15:37;3.00;3.00;2.00
45700;PMS5003;36277;32.852;-116.998;2023-07-08T00:18:12;3.20;3.20;2.80
45700;PMS5003;36277;32.852;-116.998;2023-07-08T00:20:44;2.80;2.80;2.00
45700;PMS5003;36277;32.852;-116.998;2023-07-08T00:23:15;4.00;4.00;3.60
45700;PMS5003;36277;32.852;-116.998;2023-07-08T00:25:42;2.00;2.00;2.00
45700;PMS5003;36277;32.852;-116.998;2023-07-08T00:28:09;2.00;2.00;2.00
45700;PMS5003;36277;32.852;-116.998;2023-07-08T00:30:40;2.00;2.00;2.00
45700;PMS5003;36277;32.852;-116.998;2023-07-08T00:33:07;1.40;1.40;1.40
45700;PMS5003;36277;32.852;-116.998;2023-07-08T00:35:34;2.00;2.00;2.00
45700;PMS5003;36277;32.852;-116.998;2023-07-08T00:38:24;2.60;2.60;2.00
45700;PMS5003;36277;32.852;-116.998;2023-07-08T00:43:30;3.00;3.00;2.40
45700;PMS5003;36277;32.852;-116.998;2023-07-08T00:51:49;3.00;3.00;2.00
45700;PMS5003;36277;32.852;-116.998;2023-07-08T00:54:16;3.00;3.00;2.60
45700;PMS5003;36277;32.852;-116.998;2023-07-08T00:56:55;3.20;3.20;3.00
45700;PMS5003;36277;32.852;-116.998;2023-07-08T00:59:29;3.20;3.20;3.00
45700;PMS5003;36277;32.852;-116.998;2023-07-08T01:02:08;2.80;2.80;2.40
45700;PMS5003;36277;32.852;-116.998;2023-07-08T01:04:58;2.00;2.00;1.40
45700;PMS5003;36277;32.852;-116.998;2023-07-08T01:07:36;2.80;2.80;2.00
45700;PMS5003;36277;32.852;-116.998;2023-07-08T01:10:07;1.80;1.80;1.40
45700;PMS5003;36277;32.852;-116.998;2023-07-08T01:12:40;2.60;2.60;2.60
45700;PMS5003;36277;32.852;-116.998;2023-07-08T01:15:11;3.00;3.00;2.00
45700;PMS5003;36277;32.852;-116.998;2023-07-08T01:17:40;3.00;3.00;2.80
45700;PMS5003;36277;32.852;-116.998;2023-07-08T01:20:09;2.80;2.80;2.00
45700;PMS5003;36277;32.852;-116.998;2023-07-08T01:22:40;2.00;2.00;2.00
45700;PMS5003;36277;32.852;-116.998;2023-07-08T01:25:08;2.80;2.80;2.20
45700;PMS5003;36277;32.852;-116.998;2023-07-08T01:27:37;2.40;2.40;2.20
45700;PMS5003;36277;32.852;-116.998;2023-07-08T01:30:07;3.40;3.40;3.00
45700;PMS5003;36277;32.852;-116.998;2023-07-08T01:32:39;3.00;3.00;2.40
45700;PMS5003;36277;32.852;-116.998;2023-07-08T01:35:11;3.00;3.00;2.40
45700;PMS5003;36277;32.852;-116.998;2023-07-08T01:37:43;2.40;2.40;2.20
45700;PMS5003;36277;32.852;-116.998;2023-07-08T01:42:53;1.80;1.80;1.40
45700;PMS5003;36277;32.852;-116.998;2023-07-08T01:45:20;3.20;3.20;3.00
45700;PMS5003;36277;32.852;-116.998;2023-07-08T01:47:50;3.80;3.80;2.80
45700;PMS5003;36277;32.852;-116.998;2023-07-08T01:50:20;3.00;3.00;2.40
45700;PMS5003;36277;32.852;-116.998;2023-07-08T01:52:48;1.80;1.80;1.80
45700;PMS5003;36277;32.852;-116.998;2023-07-08T01:55:22;2.00;2.00;1.60
45700;PMS5003;36277;32.852;-116.998;2023-07-08T01:57:50;1.80;1.80;1.00
45700;PMS5003;36277;32.852;-116.998;2023-07-08T02:00:21;0.00;0.00;0.00
45700;PMS5003;36277;32.852;-116.998;2023-07-08T02:02:48;2.20;2.20;2.20
45700;PMS5003;36277;32.852;-116.998;2023-07-08T02:05:15;1.00;1.00;0.60
45700;PMS5003;36277;32.852;-116.998;2023-07-08T02:07:42;2.40;2.40;1.40
45700;PMS5003;36277;32.852;-116.998;2023-07-08T02:10:08;2.60;2.60;2.40
45700;PMS5003;36277;32.852;-116.998;2023-07-08T02:12:34;2.20;2.20;2.20
45700;PMS5003;36277;32.852;-116.998;2023-07-08T02:15:01;1.60;1.60;1.20
45700;PMS5003;36277;32.852;-116.998;2023-07-08T02:17:27;2.40;2.40;1.40
45700;PMS5003;36277;32.852;-116.998;2023-07-08T02:19:56;2.60;2.60;2.00
45700;PMS5003;36277;32.852;-116.998;2023-07-08T02:22:23;3.40;3.40;3.00
45700;PMS5003;36277;32.852;-116.998;2023-07-08T02:24:49;2.00;2.00;1.80
45700;PMS5003;36277;32.852;-116.998;2023-07-08T02:27:15;1.60;1.60;1.60
45700;PMS5003;36277;32.852;-116.998;2023-07-08T02:29:41;2.20;2.20;1.80
45700;PMS5003;36277;32.852;-116.998;2023-07-08T02:32:08;3.00;3.00;3.00
45700;PMS5003;36277;32.852;-116.998;2023-07-08T02:34:37;2.60;2.60;2.60
45700;PMS5003;36277;32.852;-116.998;2023-07-08T02:37:04;2.80;2.80;2.80
45700;PMS5003;36277;32.852;-116.998;2023-07-08T02:39:30;3.40;3.40;3.00
45700;PMS5003;36277;32.852;-116.998;2023-07-08T02:41:56;7.60;7.60;5.60
45700;PMS5003;36277;32.852;-116.998;2023-07-08T02:44:22;4.80;4.80;4.00
45700;PMS5003;36277;32.852;-116.998;2023-07-08T02:46:49;5.00;5.00;4.20
45700;PMS5003;36277;32.852;-116.998;2023-07-08T02:49:15;5.80;5.80;4.80
45700;PMS5003;36277;32.852;-116.998;2023-07-08T02:51:41;3.00;3.00;3.00
45700;PMS5003;36277;32.852;-116.998;2023-07-08T02:54:07;5.40;5.40;4.80
45700;PMS5003;36277;32.852;-116.998;2023-07-08T02:56:33;7.60;7.60;6.00
45700;PMS5003;36277;32.852;-116.998;2023-07-08T02:59:00;19.00;19.00;13.20
45700;PMS5003;36277;32.852;-116.998;2023-07-08T03:01:26;40.20;37.20;24.80
45700;PMS5003;36277;32.852;-116.998;2023-07-08T03:03:52;37.00;35.50;23.25
45700;PMS5003;36277;32.852;-116.998;2023-07-08T03:06:23;34.25;33.00;24.00
45700;PMS5003;36277;32.852;-116.998;2023-07-08T03:08:49;35.25;33.25;24.00
45700;PMS5003;36277;32.852;-116.998;2023-07-08T03:11:16;30.60;30.60;20.40
45700;PMS5003;36277;32.852;-116.998;2023-07-08T03:13:45;32.60;32.60;22.60
45700;PMS5003;36277;32.852;-116.998;2023-07-08T03:16:11;31.60;30.60;21.40
45700;PMS5003;36277;32.852;-116.998;2023-07-08T03:18:38;23.40;23.40;17.60
45700;PMS5003;36277;32.852;-116.998;2023-07-08T03:21:12;23.60;23.60;18.80
45700;PMS5003;36277;32.852;-116.998;2023-07-08T03:23:39;23.40;23.40;18.60
45700;PMS5003;36277;32.852;-116.998;2023-07-08T03:26:06;25.00;25.00;18.80
45700;PMS5003;36277;32.852;-116.998;2023-07-08T03:28:33;17.80;17.80;16.20
45700;PMS5003;36277;32.852;-116.998;2023-07-08T03:30:59;16.40;16.40;13.40
45700;PMS5003;36277;32.852;-116.998;2023-07-08T03:33:25;21.80;21.80;17.40
45700;PMS5003;36277;32.852;-116.998;2023-07-08T03:35:51;21.60;21.40;17.00
45700;PMS5003;36277;32.852;-116.998;2023-07-08T03:38:17;19.00;19.00;14.60
45700;PMS5003;36277;32.852;-116.998;2023-07-08T03:40:44;20.40;20.40;13.80
45700;PMS5003;36277;32.852;-116.998;2023-07-08T03:43:10;23.20;23.20;16.40
45700;PMS5003;36277;32.852;-116.998;2023-07-08T03:45:36;20.40;20.40;15.20
45700;PMS5003;36277;32.852;-116.998;2023-07-08T03:48:03;21.80;21.80;17.00
45700;PMS5003;36277;32.852;-116.998;2023-07-08T03:50:29;18.20;18.20;14.20
45700;PMS5003;36277;32.852;-116.998;2023-07-08T03:52:55;20.80;20.80;14.40
45700;PMS5003;36277;32.852;-116.998;2023-07-08T03:55:22;20.80;20.80;13.80
45700;PMS5003;36277;32.852;-116.998;2023-07-08T03:57:48;22.00;22.00;16.60
45700;PMS5003;36277;32.852;-116.998;2023-07-08T04:00:15;21.00;21.00;16.20
45700;PMS5003;36277;32.852;-116.998;2023-07-08T04:02:42;18.20;18.20;13.00
45700;PMS5003;36277;32.852;-116.998;2023-07-08T04:07:42;18.00;18.00;13.00
45700;PMS5003;36277;32.852;-116.998;2023-07-08T04:10:09;21.60;21.60;16.20
45700;PMS5003;36277;32.852;-116.998;2023-07-08T04:12:36;17.20;17.20;14.00
45700;PMS5003;36277;32.852;-116.998;2023-07-08T04:15:03;17.60;17.60;13.60
45700;PMS5003;36277;32.852;-116.998;2023-07-08T04:17:30;18.80;18.80;14.20
45700;PMS5003;36277;32.852;-116.998;2023-07-08T04:19:56;17.80;17.80;13.40
45700;PMS5003;36277;32.852;-116.998;2023-07-08T04:22:22;17.60;17.60;13.00
45700;PMS5003;36277;32.852;-116.998;2023-07-08T04:24:49;15.00;15.00;13.00
45700;PMS5003;36277;32.852;-116.998;2023-07-08T04:27:16;15.80;15.80;13.40
45700;PMS5003;36277;32.852;-116.998;2023-07-08T04:29:43;19.20;19.20;14.20
45700;PMS5003;36277;32.852;-116.998;2023-07-08T04:32:10;17.20;17.20;13.00
45700;PMS5003;36277;32.852;-116.998;2023-07-08T04:34:36;15.80;15.80;12.80
45700;PMS5003;36277;32.852;-116.998;2023-07-08T04:37:02;13.20;13.20;11.00
45700;PMS5003;36277;32.852;-116.998;2023-07-08T04:39:30;15.00;15.00;11.60
45700;PMS5003;36277;32.852;-116.998;2023-07-08T04:41:56;12.20;12.20;9.00
45700;PMS5003;36277;32.852;-116.998;2023-07-08T04:44:23;14.60;14.60;12.20
45700;PMS5003;36277;32.852;-116.998;2023-07-08T04:46:50;15.00;15.00;9.20
45700;PMS5003;36277;32.852;-116.998;2023-07-08T04:49:20;14.00;14.00;10.00
45700;PMS5003;36277;32.852;-116.998;2023-07-08T04:51:48;14.60;14.60;11.40
45700;PMS5003;36277;32.852;-116.998;2023-07-08T04:54:15;15.80;15.40;11.00
45700;PMS5003;36277;32.852;-116.998;2023-07-08T04:56:42;14.40;14.40;11.00
45700;PMS5003;36277;32.852;-116.998;2023-07-08T04:59:11;15.40;15.40;11.80
45700;PMS5003;36277;32.852;-116.998;2023-07-08T05:01:39;13.00;13.00;9.40
45700;PMS5003;36277;32.852;-116.998;2023-07-08T05:04:05;13.80;13.80;10.60
45700;PMS5003;36277;32.852;-116.998;2023-07-08T05:06:35;7.00;7.00;6.00
45700;PMS5003;36277;32.852;-116.998;2023-07-08T05:09:02;12.00;12.00;10.00
45700;PMS5003;36277;32.852;-116.998;2023-07-08T05:11:29;7.60;6.80;6.00
45700;PMS5003;36277;32.852;-116.998;2023-07-08T05:13:55;9.60;9.60;7.20
45700;PMS5003;36277;32.852;-116.998;2023-07-08T05:16:22;13.20;13.20;11.00
45700;PMS5003;36277;32.852;-116.998;2023-07-08T05:18:49;10.80;10.80;7.60
45700;PMS5003;36277;32.852;-116.998;2023-07-08T05:21:15;10.80;10.80;8.40
45700;PMS5003;36277;32.852;-116.998;2023-07-08T05:23:45;12.60;12.60;11.00
45700;PMS5003;36277;32.852;-116.998;2023-07-08T05:26:14;11.60;11.60;9.80
45700;PMS5003;36277;32.852;-116.998;2023-07-08T05:28:41;8.40;8.40;6.40
45700;PMS5003;36277;32.852;-116.998;2023-07-08T05:31:08;8.40;8.40;6.40
45700;PMS5003;36277;32.852;-116.998;2023-07-08T05:33:34;10.20;10.20;8.20
45700;PMS5003;36277;32.852;-116.998;2023-07-08T05:36:01;7.00;7.00;6.40
45700;PMS5003;36277;32.852;-116.998;2023-07-08T05:38:27;6.00;6.00;5.00
45700;PMS5003;36277;32.852;-116.998;2023-07-08T05:40:54;8.20;8.20;6.20
45700;PMS5003;36277;32.852;-116.998;2023-07-08T05:43:22;7.40;7.40;5.60
45700;PMS5003;36277;32.852;-116.998;2023-07-08T05:45:49;7.00;7.00;6.00
45700;PMS5003;36277;32.852;-116.998;2023-07-08T05:48:15;6.40;6.40;5.20
45700;PMS5003;36277;32.852;-116.998;2023-07-08T05:50:41;6.40;6.40;5.20
45700;PMS5003;36277;32.852;-116.998;2023-07-08T05:53:11;7.00;7.00;6.20
45700;PMS5003;36277;32.852;-116.998;2023-07-08T05:55:37;4.80;4.80;4.60
45700;PMS5003;36277;32.852;-116.998;2023-07-08T05:58:05;3.80;3.80;3.80
45700;PMS5003;36277;32.852;-116.998;2023-07-08T06:00:31;4.00;4.00;4.00
45700;PMS5003;36277;32.852;-116.998;2023-07-08T06:02:57;5.40;5.40;4.00
45700;PMS5003;36277;32.852;-116.998;2023-07-08T06:05:24;3.00;3.00;3.00
45700;PMS5003;36277;32.852;-116.998;2023-07-08T06:07:50;4.80;4.80;4.40
45700;PMS5003;36277;32.852;-116.998;2023-07-08T06:10:16;3.60;3.60;3.60
45700;PMS5003;36277;32.852;-116.998;2023-07-08T06:12:42;4.20;4.20;3.80
45700;PMS5003;36277;32.852;-116.998;2023-07-08T06:15:09;5.40;5.40;4.80
45700;PMS5003;36277;32.852;-116.998;2023-07-08T06:17:37;3.80;3.80;3.00
45700;PMS5003;36277;32.852;-116.998;2023-07-08T06:20:03;3.40;3.40;3.20
45700;PMS5003;36277;32.852;-116.998;2023-07-08T06:22:30;2.00;2.00;2.00
45700;PMS5003;36277;32.852;-116.998;2023-07-08T06:24:56;2.40;2.40;2.00
45700;PMS5003;36277;32.852;-116.998;2023-07-08T06:27:22;3.20;3.20;3.00
45700;PMS5003;36277;32.852;-116.998;2023-07-08T06:29:50;3.40;3.40;3.00
45700;PMS5003;36277;32.852;-116.998;2023-07-08T06:32:16;2.60;2.60;2.00
45700;PMS5003;36277;32.852;-116.998;2023-07-08T06:34:42;2.00;2.00;2.00
45700;PMS5003;36277;32.852;-116.998;2023-07-08T06:37:08;2.00;2.00;2.00
45700;PMS5003;36277;32.852;-116.998;2023-07-08T06:39:35;2.20;2.20;2.00
45700;PMS5003;36277;32.852;-116.998;2023-07-08T06:42:01;1.40;1.40;1.40
45700;PMS5003;36277;32.852;-116.998;2023-07-08T06:44:27;3.60;3.60;3.00
45700;PMS5003;36277;32.852;-116.998;2023-07-08T06:46:54;2.00;2.00;2.00
45700;PMS5003;36277;32.852;-116.998;2023-07-08T06:49:20;3.00;3.00;3.00
45700;PMS5003;36277;32.852;-116.998;2023-07-08T06:51:46;3.00;3.00;2.40
45700;PMS5003;36277;32.852;-116.998;2023-07-08T06:54:12;3.00;3.00;2.60
45700;PMS5003;36277;32.852;-116.998;2023-07-08T06:56:38;2.00;2.00;1.00
45700;PMS5003;36277;32.852;-116.998;2023-07-08T06:59:06;2.40;2.40;2.00
45700;PMS5003;36277;32.852;-116.998;2023-07-08T07:01:33;2.00;2.00;2.00
45700;PMS5003;36277;32.852;-116.998;2023-07-08T07:04:02;2.20;2.20;2.00
45700;PMS5003;36277;32.852;-116.998;2023-07-08T07:06:29;2.20;2.20;2.20
45700;PMS5003;36277;32.852;-116.998;2023-07-08T07:08:55;1.40;1.40;1.40
45700;PMS5003;36277;32.852;-116.998;2023-07-08T07:11:22;2.00;2.00;1.20
45700;PMS5003;36277;32.852;-116.998;2023-07-08T07:13:48;3.00;3.00;2.00
45700;PMS5003;36277;32.852;-116.998;2023-07-08T07:16:14;2.00;2.00;2.00
45700;PMS5003;36277;32.852;-116.998;2023-07-08T07:18:41;2.00;2.00;2.00
45700;PMS5003;36277;32.852;-116.998;2023-07-08T07:21:07;1.00;1.00;1.00
45700;PMS5003;36277;32.852;-116.998;2023-07-08T07:23:33;2.00;2.00;1.80
45700;PMS5003;36277;32.852;-116.998;2023-07-08T07:25:59;3.00;3.00;2.20
45700;PMS5003;36277;32.852;-116.998;2023-07-08T07:28:26;3.20;3.20;2.80
45700;PMS5003;36277;32.852;-116.998;2023-07-08T07:30:58;2.00;2.00;2.00
45700;PMS5003;36277;32.852;-116.998;2023-07-08T07:33:25;2.80;2.80;2.00
45700;PMS5003;36277;32.852;-116.998;2023-07-08T07:35:52;2.80;2.80;2.80
45700;PMS5003;36277;32.852;-116.998;2023-07-08T07:38:18;3.00;3.00;3.00
45700;PMS5003;36277;32.852;-116.998;2023-07-08T07:40:45;3.00;3.00;3.00
45700;PMS5003;36277;32.852;-116.998;2023-07-08T07:43:11;1.00;1.00;0.00
45700;PMS5003;36277;32.852;-116.998;2023-07-08T07:45:37;2.80;2.80;2.40
45700;PMS5003;36277;32.852;-116.998;2023-07-08T07:48:04;3.00;3.00;2.40
45700;PMS5003;36277;32.852;-116.998;2023-07-08T07:50:30;2.00;2.00;2.00
45700;PMS5003;36277;32.852;-116.998;2023-07-08T07:52:57;2.60;2.60;2.20
45700;PMS5003;36277;32.852;-116.998;2023-07-08T07:55:23;2.00;2.00;2.00
45700;PMS5003;36277;32.852;-116.998;2023-07-08T07:57:51;2.00;2.00;2.00
45700;PMS5003;36277;32.852;-116.998;2023-07-08T08:00:17;2.00;2.00;1.20
45700;PMS5003;36277;32.852;-116.998;2023-07-08T08:02:43;2.60;2.60;2.00
45700;PMS5003;36277;32.852;-116.998;2023-07-08T08:05:09;2.60;2.60;2.00
45700;PMS5003;36277;32.852;-116.998;2023-07-08T08:07:36;1.40;1.40;1.00
45700;PMS5003;36277;32.852;-116.998;2023-07-08T08:10:02;2.40;2.40;2.00
45700;PMS5003;36277;32.852;-116.998;2023-07-08T08:12:29;2.40;2.40;2.00
45700;PMS5003;36277;32.852;-116.998;2023-07-08T08:14:55;1.80;1.80;1.80
45700;PMS5003;36277;32.852;-116.998;2023-07-08T08:17:22;2.00;2.00;2.00
45700;PMS5003;36277;32.852;-116.998;2023-07-08T08:19:48;2.60;2.60;2.40
45700;PMS5003;36277;32.852;-116.998;2023-07-08T08:22:14;2.00;2.00;1.00
45700;PMS5003;36277;32.852;-116.998;2023-07-08T08:24:40;3.00;3.00;2.40
45700;PMS5003;36277;32.852;-116.998;2023-07-08T08:27:06;2.80;2.80;2.00
45700;PMS5003;36277;32.852;-116.998;2023-07-08T08:29:33;3.00;3.00;2.40
45700;PMS5003;36277;32.852;-116.998;2023-07-08T08:32:02;3.00;3.00;2.20
45700;PMS5003;36277;32.852;-116.998;2023-07-08T08:34:28;4.00;4.00;2.80
45700;PMS5003;36277;32.852;-116.998;2023-07-08T08:36:54;2.00;2.00;2.00
45700;PMS5003;36277;32.852;-116.998;2023-07-08T08:39:21;2.00;2.00;2.00
45700;PMS5003;36277;32.852;-116.998;2023-07-08T08:41:47;1.60;1.60;1.00
45700;PMS5003;36277;32.852;-116.998;2023-07-08T08:44:27;2.00;2.00;1.80
45700;PMS5003;36277;32.852;-116.998;2023-07-08T08:52:52;2.20;2.20;2.20
45700;PMS5003;36277;32.852;-116.998;2023-07-08T08:55:20;3.00;3.00;2.00
45700;PMS5003;36277;32.852;-116.998;2023-07-08T09:00:23;3.00;3.00;3.00
45700;PMS5003;36277;32.852;-116.998;2023-07-08T09:03:03;4.00;4.00;3.00
45700;PMS5003;36277;32.852;-116.998;2023-07-08T09:05:46;2.00;2.00;2.00
45700;PMS5003;36277;32.852;-116.998;2023-07-08T09:13:34;3.00;3.00;2.60
45700;PMS5003;36277;32.852;-116.998;2023-07-08T09:16:06;2.20;2.20;2.00
45700;PMS5003;36277;32.852;-116.998;2023-07-08T09:21:32;0.00;0.00;0.00
45700;PMS5003;36277;32.852;-116.998;2023-07-08T09:26:55;2.00;2.00;2.00
45700;PMS5003;36277;32.852;-116.998;2023-07-08T09:29:26;2.40;2.40;2.00
45700;PMS5003;36277;32.852;-116.998;2023-07-08T09:31:52;2.60;2.60;2.20
45700;PMS5003;36277;32.852;-116.998;2023-07-08T09:34:22;3.80;3.80;3.00
45700;PMS5003;36277;32.852;-116.998;2023-07-08T09:37:01;2.00;2.00;2.00
45700;PMS5003;36277;32.852;-116.998;2023-07-08T09:39:27;4.00;4.00;3.20
45700;PMS5003;36277;32.852;-116.998;2023-07-08T09:41:55;3.20;3.20;3.00
45700;PMS5003;36277;32.852;-116.998;2023-07-08T09:44:23;3.00;3.00;3.00
45700;PMS5003;36277;32.852;-116.998;2023-07-08T09:46:54;2.20;2.20;2.00
45700;PMS5003;36277;32.852;-116.998;2023-07-08T09:49:23;2.40;2.40;2.20
45700;PMS5003;36277;32.852;-116.998;2023-07-08T09:52:01;1.00;1.00;1.00
45700;PMS5003;36277;32.852;-116.998;2023-07-08T09:54:29;2.00;2.00;2.00
45700;PMS5003;36277;32.852;-116.998;2023-07-08T09:57:04;1.00;1.00;1.00
45700;PMS5003;36277;32.852;-116.998;2023-07-08T09:59:38;4.00;4.00;3.00
45700;PMS5003;36277;32.852;-116.998;2023-07-08T10:02:21;2.20;2.20;2.00
45700;PMS5003;36277;32.852;-116.998;2023-07-08T10:08:02;2.00;2.00;2.00
45700;PMS5003;36277;32.852;-116.998;2023-07-08T10:10:37;3.00;3.00;3.00
45700;PMS5003;36277;32.852;-116.998;2023-07-08T10:13:04;2.00;2.00;2.00
45700;PMS5003;36277;32.852;-116.998;2023-07-08T10:18:41;3.00;3.00;3.00
45700;PMS5003;36277;32.852;-116.998;2023-07-08T10:26:26;3.20;3.20;2.60
45700;PMS5003;36277;32.852;-116.998;2023-07-08T10:29:13;2.80;2.80;2.20
45700;PMS5003;36277;32.852;-116.998;2023-07-08T10:32:01;1.00;1.00;1.00
45700;PMS5003;36277;32.852;-116.998;2023-07-08T10:45:41;3.00;3.00;2.00
45700;PMS5003;36277;32.852;-116.998;2023-07-08T10:53:45;2.00;2.00;2.00
45700;PMS5003;36277;32.852;-116.998;2023-07-08T10:58:42;3.00;3.00;2.00
45700;PMS5003;36277;32.852;-116.998;2023-07-08T11:06:57;3.00;3.00;2.00
45700;PMS5003;36277;32.852;-116.998;2023-07-08T11:09:35;2.00;2.00;1.60
45700;PMS5003;36277;32.852;-116.998;2023-07-08T11:15:13;2.00;2.00;1.40
45700;PMS5003;36277;32.852;-116.998;2023-07-08T11:17:57;2.60;2.60;2.40
45700;PMS5003;36277;32.852;-116.998;2023-07-08T11:26:31;3.00;3.00;2.80
45700;PMS5003;36277;32.852;-116.998;2023-07-08T11:29:00;2.20;2.20;2.00
45700;PMS5003;36277;32.852;-116.998;2023-07-08T11:31:30;3.00;3.00;3.00
45700;PMS5003;36277;32.852;-116.998;2023-07-08T11:33:58;3.20;3.20;3.00
45700;PMS5003;36277;32.852;-116.998;2023-07-08T11:36:26;3.00;3.00;2.80
45700;PMS5003;36277;32.852;-116.998;2023-07-08T11:38:54;2.80;2.80;2.60
45700;PMS5003;36277;32.852;-116.998;2023-07-08T11:41:23;2.60;2.60;2.40
45700;PMS5003;36277;32.852;-116.998;2023-07-08T11:43:57;1.80;1.80;1.40
45700;PMS5003;36277;32.852;-116.998;2023-07-08T11:46:37;2.00;2.00;1.80
45700;PMS5003;36277;32.852;-116.998;2023-07-08T11:49:20;3.60;3.60;3.20
45700;PMS5003;36277;32.852;-116.998;2023-07-08T11:51:46;3.40;3.40;2.80
45700;PMS5003;36277;32.852;-116.998;2023-07-08T11:54:19;2.20;2.20;2.00
45700;PMS5003;36277;32.852;-116.998;2023-07-08T11:59:30;3.60;3.60;3.00
45700;PMS5003;36277;32.852;-116.998;2023-07-08T12:02:18;0.80;0.80;0.00
45700;PMS5003;36277;32.852;-116.998;2023-07-08T12:04:55;3.00;3.00;2.00
45700;PMS5003;36277;32.852;-116.998;2023-07-08T12:07:40;3.00;3.00;3.00
45700;PMS5003;36277;32.852;-116.998;2023-07-08T12:10:14;4.00;4.00;3.60
45700;PMS5003;36277;32.852;-116.998;2023-07-08T12:12:51;4.00;4.00;3.00
45700;PMS5003;36277;32.852;-116.998;2023-07-08T12:18:01;2.80;2.80;2.80
45700;PMS5003;36277;32.852;-116.998;2023-07-08T12:20:34;3.00;3.00;2.40
45700;PMS5003;36277;32.852;-116.998;2023-07-08T12:23:03;2.40;2.40;2.20
45700;PMS5003;36277;32.852;-116.998;2023-07-08T12:25:39;3.00;3.00;3.00
45700;PMS5003;36277;32.852;-116.998;2023-07-08T12:28:05;3.00;3.00;3.00
45700;PMS5003;36277;32.852;-116.998;2023-07-08T12:30:32;2.00;2.00;1.20
45700;PMS5003;36277;32.852;-116.998;2023-07-08T12:32:59;3.00;3.00;2.00
45700;PMS5003;36277;32.852;-116.998;2023-07-08T12:38:01;3.20;3.20;2.80
45700;PMS5003;36277;32.852;-116.998;2023-07-08T12:40:43;2.80;2.80;2.40
45700;PMS5003;36277;32.852;-116.998;2023-07-08T12:43:09;2.60;2.60;2.00
45700;PMS5003;36277;32.852;-116.998;2023-07-08T12:45:36;3.00;3.00;2.80
45700;PMS5003;36277;32.852;-116.998;2023-07-08T12:48:03;3.00;3.00;2.60
45700;PMS5003;36277;32.852;-116.998;2023-07-08T12:50:29;3.00;3.00;3.00
45700;PMS5003;36277;32.852;-116.998;2023-07-08T12:52:55;3.00;3.00;3.00
45700;PMS5003;36277;32.852;-116.998;2023-07-08T12:55:22;3.20;3.20;3.00
45700;PMS5003;36277;32.852;-116.998;2023-07-08T12:57:50;3.00;3.00;3.00
45700;PMS5003;36277;32.852;-116.998;2023-07-08T13:00:32;2.00;2.00;2.00
45700;PMS5003;36277;32.852;-116.998;2023-07-08T13:03:05;3.00;3.00;3.00
45700;PMS5003;36277;32.852;-116.998;2023-07-08T13:05:33;3.00;3.00;2.00
45700;PMS5003;36277;32.852;-116.998;2023-07-08T13:08:00;4.00;4.00;3.00
45700;PMS5003;36277;32.852;-116.998;2023-07-08T13:10:28;3.60;3.60;2.60
45700;PMS5003;36277;32.852;-116.998;2023-07-08T13:12:59;3.00;3.00;2.40
45700;PMS5003;36277;32.852;-116.998;2023-07-08T13:15:30;4.20;4.20;3.80
45700;PMS5003;36277;32.852;-116.998;2023-07-08T13:18:05;3.60;3.60;3.20
45700;PMS5003;36277;32.852;-116.998;2023-07-08T13:20:42;2.80;2.80;2.40
45700;PMS5003;36277;32.852;-116.998;2023-07-08T13:23:13;3.00;3.00;2.60
45700;PMS5003;36277;32.852;-116.998;2023-07-08T13:25:39;3.00;3.00;3.00
45700;PMS5003;36277;32.852;-116.998;2023-07-08T13:30:50;4.00;4.00;3.00
45700;PMS5003;36277;32.852;-116.998;2023-07-08T13:33:18;2.80;2.80;2.80
45700;PMS5003;36277;32.852;-116.998;2023-07-08T13:35:45;3.00;3.00;2.60
45700;PMS5003;36277;32.852;-116.998;2023-07-08T13:38:16;3.20;3.20;2.80
45700;PMS5003;36277;32.852;-116.998;2023-07-08T13:40:45;3.00;3.00;3.00
45700;PMS5003;36277;32.852;-116.998;2023-07-08T13:43:13;3.20;3.20;3.00
45700;PMS5003;36277;32.852;-116.998;2023-07-08T13:45:45;4.80;4.80;4.00
45700;PMS5003;36277;32.852;-116.998;2023-07-08T13:48:18;3.20;3.20;3.20
45700;PMS5003;36277;32.852;-116.998;2023-07-08T13:51:05;3.00;3.00;3.00
45700;PMS5003;36277;32.852;-116.998;2023-07-08T13:56:14;3.40;3.40;3.00
45700;PMS5003;36277;32.852;-116.998;2023-07-08T13:58:42;3.60;3.60;3.00
45700;PMS5003;36277;32.852;-116.998;2023-07-08T14:01:18;4.00;4.00;3.60
45700;PMS5003;36277;32.852;-116.998;2023-07-08T14:03:50;4.20;4.20;4.00
45700;PMS5003;36277;32.852;-116.998;2023-07-08T14:06:21;3.40;3.40;2.60
45700;PMS5003;36277;32.852;-116.998;2023-07-08T14:08:53;2.00;2.00;2.00
45700;PMS5003;36277;32.852;-116.998;2023-07-08T14:11:21;4.00;4.00;3.40
45700;PMS5003;36277;32.852;-116.998;2023-07-08T14:13:48;4.00;4.00;3.40
45700;PMS5003;36277;32.852;-116.998;2023-07-08T14:16:25;4.00;4.00;3.60
45700;PMS5003;36277;32.852;-116.998;2023-07-08T14:18:56;4.60;4.60;3.80
45700;PMS5003;36277;32.852;-116.998;2023-07-08T14:21:25;4.60;4.60;4.00
45700;PMS5003;36277;32.852;-116.998;2023-07-08T14:23:51;3.60;3.60;3.00
45700;PMS5003;36277;32.852;-116.998;2023-07-08T14:26:19;4.00;4.00;2.60
45700;PMS5003;36277;32.852;-116.998;2023-07-08T14:28:45;3.80;3.80;3.80
45700;PMS5003;36277;32.852;-116.998;2023-07-08T14:31:11;3.00;3.00;2.40
45700;PMS5003;36277;32.852;-116.998;2023-07-08T14:33:46;3.60;3.60;3.00
45700;PMS5003;36277;32.852;-116.998;2023-07-08T14:36:13;3.00;3.00;2.40
45700;PMS5003;36277;32.852;-116.998;2023-07-08T14:38:42;4.00;4.00;3.00
45700;PMS5003;36277;32.852;-116.998;2023-07-08T14:41:08;3.00;3.00;3.00
45700;PMS5003;36277;32.852;-116.998;2023-07-08T14:43:35;3.60;2.80;2.60
45700;PMS5003;36277;32.852;-116.998;2023-07-08T14:46:04;2.00;2.00;2.00
45700;PMS5003;36277;32.852;-116.998;2023-07-08T14:48:32;3.00;3.00;2.20
45700;PMS5003;36277;32.852;-116.998;2023-07-08T14:50:58;3.20;3.20;3.20
45700;PMS5003;36277;32.852;-116.998;2023-07-08T14:53:24;3.60;3.60;3.40
45700;PMS5003;36277;32.852;-116.998;2023-07-08T14:55:51;3.20;3.20;2.60
45700;PMS5003;36277;32.852;-116.998;2023-07-08T15:00:56;3.60;3.60;3.40
45700;PMS5003;36277;32.852;-116.998;2023-07-08T15:03:25;4.20;3.80;3.00
45700;PMS5003;36277;32.852;-116.998;2023-07-08T15:05:52;3.00;3.00;3.00
45700;PMS5003;36277;32.852;-116.998;2023-07-08T15:08:18;3.80;3.80;3.00
45700;PMS5003;36277;32.852;-116.998;2023-07-08T15:10:46;5.00;5.00;3.60
45700;PMS5003;36277;32.852;-116.998;2023-07-08T15:13:14;2.80;2.80;2.80
45700;PMS5003;36277;32.852;-116.998;2023-07-08T15:15:43;3.40;3.40;3.00
45700;PMS5003;36277;32.852;-116.998;2023-07-08T15:18:10;3.80;3.80;3.00
45700;PMS5003;36277;32.852;-116.998;2023-07-08T15:20:39;3.20;3.20;3.00
45700;PMS5003;36277;32.852;-116.998;2023-07-08T15:23:06;4.00;4.00;3.00